createdAt,value
2022-12-01T00:00:56.587Z,49.30
2022-12-01T00:03:47.339Z,49.28
2022-12-01T00:06:41.768Z,49.30
2022-12-01T00:09:54.684Z,49.23
2022-12-01T00:12:45.159Z,49.28
2022-12-01T00:15:43.363Z,49.23
2022-12-01T00:18:33.871Z,49.11
2022-12-01T00:21:25.172Z,49.15
2022-12-01T00:24:15.883Z,49.10
2022-12-01T00:27:06.785Z,49.09
2022-12-01T00:30:07.879Z,49.14
2022-12-01T00:32:58.505Z,49.20
2022-12-01T00:35:49.325Z,49.16
2022-12-01T00:38:39.862Z,49.17
2022-12-01T00:41:36.559Z,49.18
2022-12-01T00:44:27.263Z,49.14
2022-12-01T00:47:24.450Z,49.10
2022-12-01T00:50:18.592Z,49.13
2022-12-01T00:53:09.612Z,49.14
2022-12-01T00:56:00.336Z,49.08
2022-12-01T00:58:50.966Z,49.00
2022-12-01T01:01:41.999Z,49.07
2022-12-01T01:04:32.920Z,49.08
2022-12-01T01:07:24.010Z,49.06
2022-12-01T01:10:22.183Z,49.03
2022-12-01T01:13:16.314Z,49.05
2022-12-01T01:16:14.155Z,49.00
2022-12-01T01:19:11.805Z,48.92
2022-12-01T01:22:02.461Z,48.95
2022-12-01T01:24:53.375Z,48.86
2022-12-01T01:27:50.755Z,48.92
2022-12-01T01:30:41.984Z,48.93
2022-12-01T01:33:32.560Z,48.86
2022-12-01T01:36:23.275Z,48.95
2022-12-01T01:39:17.470Z,48.97
2022-12-01T01:42:17.893Z,48.88
2022-12-01T01:45:23.636Z,48.91
2022-12-01T01:48:20.453Z,48.94
2022-12-01T01:51:14.674Z,48.92
2022-12-01T01:54:15.066Z,48.92
2022-12-01T01:57:13.748Z,48.90
2022-12-01T02:00:11.725Z,48.90
2022-12-01T02:03:15.124Z,48.85
2022-12-01T02:06:09.531Z,48.75
2022-12-01T02:09:03.612Z,48.83
2022-12-01T02:12:10.768Z,48.85
2022-12-01T02:15:18.018Z,48.77
2022-12-01T02:18:25.624Z,48.78
2022-12-01T02:21:41.837Z,48.66
2022-12-01T02:24:53.500Z,48.73
2022-12-01T02:28:24.132Z,48.72
2022-12-01T02:31:23.051Z,48.77
2022-12-01T02:34:17.183Z,48.77
2022-12-01T02:37:21.111Z,48.74
2022-12-01T02:40:15.425Z,48.70
2022-12-01T02:43:10.168Z,48.72
2022-12-01T02:46:10.268Z,48.77
2022-12-01T02:49:10.114Z,48.76
2022-12-01T02:52:07.849Z,48.79
2022-12-01T02:55:04.963Z,48.71
2022-12-01T02:58:02.555Z,48.70
2022-12-01T03:01:10.468Z,48.71
2022-12-01T03:04:13.630Z,48.71
2022-12-01T03:07:11.340Z,48.73
2022-12-01T03:10:17.825Z,48.66
2022-12-01T03:13:20.217Z,48.70
2022-12-01T03:16:18.336Z,48.76
2022-12-01T03:19:14.764Z,48.69
2022-12-01T03:22:13.840Z,48.67
2022-12-01T03:25:10.690Z,48.65
2022-12-01T03:28:24.068Z,48.69
2022-12-01T03:31:20.421Z,48.68
2022-12-01T03:34:22.759Z,48.66
2022-12-01T03:37:17.497Z,48.63
2022-12-01T03:40:17.882Z,48.63
2022-12-01T03:43:10.829Z,48.67
2022-12-01T03:46:10.445Z,48.69
2022-12-01T03:49:03.302Z,48.68
2022-12-01T03:52:01.047Z,48.74
2022-12-01T03:54:59.087Z,48.61
2022-12-01T03:57:57.287Z,48.64
2022-12-01T04:00:49.363Z,48.70
2022-12-01T04:03:44.061Z,48.72
2022-12-01T04:06:38.585Z,48.72
2022-12-01T04:09:35.701Z,48.67
2022-12-01T04:12:29.297Z,48.63
2022-12-01T04:15:23.908Z,48.58
2022-12-01T04:18:20.751Z,48.64
2022-12-01T04:21:11.379Z,48.65
2022-12-01T04:24:01.882Z,48.64
2022-12-01T04:26:52.392Z,48.64
2022-12-01T04:29:49.854Z,48.67
2022-12-01T04:32:42.157Z,48.56
2022-12-01T04:35:32.675Z,48.60
2022-12-01T04:38:28.863Z,48.56
2022-12-01T04:41:20.970Z,48.58
2022-12-01T04:44:12.232Z,48.58
2022-12-01T04:47:02.682Z,48.53
2022-12-01T04:49:53.951Z,48.52
2022-12-01T04:52:44.349Z,48.58
2022-12-01T04:55:39.279Z,48.61
2022-12-01T04:58:29.755Z,48.57
2022-12-01T05:01:20.644Z,48.58
2022-12-01T05:04:13.561Z,48.59
2022-12-01T05:07:04.020Z,48.60
2022-12-01T05:09:54.547Z,48.57
2022-12-01T05:12:46.210Z,48.56
2022-12-01T05:15:36.850Z,48.56
2022-12-01T05:18:27.378Z,48.59
2022-12-01T05:21:18.038Z,48.55
2022-12-01T05:24:09.320Z,48.54
2022-12-01T05:26:59.753Z,48.63
2022-12-01T05:29:57.595Z,48.58
2022-12-01T05:33:12.701Z,48.51
2022-12-01T05:36:11.236Z,48.51
2022-12-01T05:39:09.705Z,48.55
2022-12-01T05:42:06.919Z,48.61
2022-12-01T05:45:07.828Z,48.57
2022-12-01T05:48:05.815Z,48.60
2022-12-01T05:51:07.974Z,48.57
2022-12-01T05:54:07.042Z,48.64
2022-12-01T05:57:05.142Z,48.68
2022-12-01T05:59:55.803Z,48.62
2022-12-01T06:02:46.395Z,48.58
2022-12-01T06:05:43.971Z,48.59
2022-12-01T06:08:34.559Z,48.59
2022-12-01T06:11:31.682Z,48.60
2022-12-01T06:14:22.428Z,48.62
2022-12-01T06:17:13.048Z,48.63
2022-12-01T06:20:04.597Z,48.64
2022-12-01T06:22:55.181Z,48.59
2022-12-01T06:25:46.130Z,48.65
2022-12-01T06:28:36.931Z,48.61
2022-12-01T06:31:27.499Z,48.55
2022-12-01T06:34:18.056Z,48.60
2022-12-01T06:37:08.797Z,48.54
2022-12-01T06:39:59.332Z,48.59
2022-12-01T06:42:49.823Z,48.54
2022-12-01T06:45:40.599Z,48.47
2022-12-01T06:48:31.360Z,48.52
2022-12-01T06:51:21.987Z,48.45
2022-12-01T06:54:14.719Z,48.53
2022-12-01T06:57:05.333Z,48.54
2022-12-01T06:59:56.426Z,48.55
2022-12-01T07:02:47.411Z,48.58
2022-12-01T07:05:38.404Z,48.49
2022-12-01T07:08:29.162Z,48.58
2022-12-01T07:11:19.737Z,48.57
2022-12-01T07:14:16.500Z,48.54
2022-12-01T07:17:07.714Z,48.53
2022-12-01T07:19:58.676Z,48.35
2022-12-01T07:22:49.814Z,48.12
2022-12-01T07:25:40.553Z,47.38
2022-12-01T07:28:31.211Z,47.14
2022-12-01T07:31:21.780Z,46.55
2022-12-01T07:34:13.508Z,46.36
2022-12-01T07:37:04.074Z,46.16
2022-12-01T07:39:54.939Z,46.82
2022-12-01T07:42:45.431Z,46.94
2022-12-01T07:45:37.077Z,47.42
2022-12-01T07:48:29.174Z,47.55
2022-12-01T07:51:20.135Z,47.69
2022-12-01T07:54:13.656Z,47.78
2022-12-01T07:57:04.711Z,47.87
2022-12-01T07:59:55.583Z,47.89
2022-12-01T08:02:46.704Z,48.11
2022-12-01T08:05:37.360Z,48.08
2022-12-01T08:08:28.514Z,48.14
2022-12-01T08:11:21.801Z,48.05
2022-12-01T08:14:12.399Z,48.18
2022-12-01T08:17:02.985Z,48.33
2022-12-01T08:19:53.526Z,48.39
2022-12-01T08:22:44.017Z,48.38
2022-12-01T08:25:34.518Z,48.38
2022-12-01T08:28:25.091Z,48.42
2022-12-01T08:31:18.862Z,48.33
2022-12-01T08:34:09.958Z,48.44
2022-12-01T08:37:00.506Z,48.49
2022-12-01T08:39:51.503Z,48.46
2022-12-01T08:42:42.612Z,48.28
2022-12-01T08:45:33.175Z,48.30
2022-12-01T08:48:23.737Z,48.37
2022-12-01T08:51:17.361Z,48.45
2022-12-01T08:54:07.963Z,48.51
2022-12-01T08:56:58.519Z,48.39
2022-12-01T08:59:51.443Z,48.35
2022-12-01T09:02:42.561Z,48.53
2022-12-01T09:05:33.263Z,48.49
2022-12-01T09:08:33.511Z,48.66
2022-12-01T09:11:24.046Z,48.76
2022-12-01T09:14:15.325Z,48.89
2022-12-01T09:17:06.073Z,49.01
2022-12-01T09:19:56.537Z,49.14
2022-12-01T09:22:47.151Z,49.25
2022-12-01T09:25:37.663Z,49.37
2022-12-01T09:28:28.509Z,49.49
2022-12-01T09:31:20.217Z,49.61
2022-12-01T09:34:13.492Z,49.81
2022-12-01T09:37:04.476Z,49.94
2022-12-01T09:39:55.372Z,50.11
2022-12-01T09:42:46.767Z,50.26
2022-12-01T09:45:40.024Z,50.40
2022-12-01T09:48:33.411Z,50.50
2022-12-01T09:51:25.701Z,50.69
2022-12-01T09:54:16.213Z,50.78
2022-12-01T09:57:06.764Z,50.97
2022-12-01T09:59:57.321Z,51.15
2022-12-01T10:02:52.561Z,51.30
2022-12-01T10:06:10.426Z,51.63
2022-12-01T10:09:03.812Z,51.41
2022-12-01T10:11:58.068Z,50.66
2022-12-01T10:14:49.481Z,50.76
2022-12-01T10:17:45.514Z,50.78
2022-12-01T10:20:42.429Z,50.69
2022-12-01T10:23:51.276Z,50.65
2022-12-01T10:26:49.675Z,50.75
2022-12-01T10:29:47.788Z,50.76
2022-12-01T10:32:46.209Z,50.74
2022-12-01T10:35:38.808Z,50.71
2022-12-01T10:38:32.745Z,50.66
2022-12-01T10:41:24.248Z,50.65
2022-12-01T10:44:15.123Z,50.61
2022-12-01T10:47:05.707Z,50.50
2022-12-01T10:49:56.244Z,50.36
2022-12-01T10:52:48.353Z,50.47
2022-12-01T10:55:46.347Z,50.44
2022-12-01T10:58:47.468Z,50.36
2022-12-01T11:01:38.101Z,50.41
2022-12-01T11:04:44.611Z,50.44
2022-12-01T11:07:42.478Z,50.44
2022-12-01T11:10:33.603Z,50.44
2022-12-01T11:13:27.901Z,50.45
2022-12-01T11:16:41.069Z,50.40
2022-12-01T11:19:34.325Z,50.40
2022-12-01T11:22:27.055Z,50.39
2022-12-01T11:25:21.738Z,50.36
2022-12-01T11:28:20.314Z,50.34
2022-12-01T11:31:11.350Z,50.30
2022-12-01T11:34:02.026Z,50.30
2022-12-01T11:36:54.780Z,50.29
2022-12-01T11:39:46.081Z,50.25
2022-12-01T11:42:37.150Z,50.25
2022-12-01T11:45:31.984Z,50.21
2022-12-01T11:48:26.587Z,50.16
2022-12-01T11:51:29.352Z,50.13
2022-12-01T11:54:22.163Z,50.10
2022-12-01T11:57:33.120Z,50.04
2022-12-01T12:00:27.372Z,50.03
2022-12-01T12:03:23.271Z,49.94
2022-12-01T12:10:01.913Z,50.11
2022-12-01T12:13:32.072Z,50.19
2022-12-01T12:16:30.339Z,50.17
2022-12-01T12:20:07.061Z,50.20
2022-12-01T12:23:05.534Z,50.23
2022-12-01T12:26:03.356Z,50.36
2022-12-01T12:29:14.089Z,50.47
2022-12-01T12:32:19.109Z,50.52
2022-12-01T12:35:31.185Z,50.59
2022-12-01T12:38:43.967Z,50.60
2022-12-01T12:41:46.397Z,50.57
2022-12-01T12:44:50.360Z,50.57
2022-12-01T12:48:01.184Z,50.52
2022-12-01T12:51:02.755Z,50.49
2022-12-01T12:53:54.442Z,50.44
2022-12-01T12:56:47.457Z,50.37
2022-12-01T12:59:50.958Z,50.39
2022-12-01T13:03:09.928Z,50.39
2022-12-01T13:06:32.769Z,50.33
2022-12-01T13:09:43.685Z,50.27
2022-12-01T13:12:55.573Z,50.25
2022-12-01T13:16:02.430Z,50.24
2022-12-01T13:19:05.644Z,50.20
2022-12-01T13:22:04.613Z,50.16
2022-12-01T13:25:05.231Z,50.05
2022-12-01T13:28:03.267Z,50.04
2022-12-01T13:31:19.297Z,50.05
2022-12-01T13:34:26.813Z,50.00
2022-12-01T13:37:51.015Z,49.92
2022-12-01T13:40:53.868Z,49.94
2022-12-01T13:44:05.825Z,49.94
2022-12-01T13:47:48.456Z,49.88
2022-12-01T13:51:01.469Z,49.84
2022-12-01T13:54:08.183Z,49.84
2022-12-01T13:57:16.111Z,49.79
2022-12-01T14:00:29.094Z,49.65
2022-12-01T14:03:44.222Z,49.64
2022-12-01T14:06:49.394Z,49.67
2022-12-01T14:09:45.497Z,49.59
2022-12-01T14:12:42.367Z,49.57
2022-12-01T14:15:43.655Z,49.55
2022-12-01T14:18:40.684Z,49.51
2022-12-01T14:21:49.857Z,49.62
2022-12-01T14:24:49.736Z,49.72
2022-12-01T14:27:45.914Z,50.05
2022-12-01T14:31:09.231Z,50.40
2022-12-01T14:34:13.181Z,50.66
2022-12-01T14:37:13.677Z,51.16
2022-12-01T14:40:32.917Z,51.71
2022-12-01T14:43:51.508Z,52.04
2022-12-01T14:46:58.160Z,52.09
2022-12-01T14:50:02.572Z,52.12
2022-12-01T14:53:10.542Z,52.09
2022-12-01T14:56:16.205Z,52.00
2022-12-01T14:59:24.451Z,51.89
2022-12-01T15:02:26.227Z,51.81
2022-12-01T15:05:27.674Z,51.80
2022-12-01T15:08:43.661Z,51.70
2022-12-01T15:11:58.581Z,51.63
2022-12-01T15:15:00.234Z,51.58
2022-12-01T15:17:57.887Z,51.56
2022-12-01T15:20:52.784Z,51.54
2022-12-01T15:24:03.321Z,51.48
2022-12-01T15:27:03.768Z,51.44
2022-12-01T15:30:03.749Z,51.38
2022-12-01T15:33:05.512Z,51.32
2022-12-01T15:36:00.700Z,51.31
2022-12-01T15:39:06.748Z,51.34
2022-12-01T15:42:00.287Z,51.29
2022-12-01T15:45:03.667Z,51.25
2022-12-01T15:48:29.465Z,51.18
2022-12-01T15:51:31.972Z,51.12
2022-12-01T15:54:33.910Z,51.08
2022-12-01T15:57:37.001Z,51.03
2022-12-01T16:00:35.945Z,50.98
2022-12-01T16:03:31.232Z,50.93
2022-12-01T16:06:33.479Z,50.90
2022-12-01T16:09:37.599Z,50.87
2022-12-01T16:12:39.376Z,50.84
2022-12-01T16:16:03.495Z,50.82
2022-12-01T16:19:33.296Z,50.80
2022-12-01T16:22:34.783Z,50.77
2022-12-01T16:25:49.287Z,50.72
2022-12-01T16:28:44.433Z,50.70
2022-12-01T16:31:58.493Z,50.66
2022-12-01T16:35:01.225Z,50.62
2022-12-01T16:38:05.185Z,50.56
2022-12-01T16:41:15.524Z,50.53
2022-12-01T16:44:28.065Z,50.49
2022-12-01T16:47:30.395Z,50.45
2022-12-01T16:50:26.218Z,50.41
2022-12-01T16:53:21.835Z,50.36
2022-12-01T16:56:23.286Z,50.32
2022-12-01T16:59:25.406Z,50.31
2022-12-01T17:02:28.146Z,50.26
2022-12-01T17:05:23.900Z,50.24
2022-12-01T17:08:26.222Z,50.18
2022-12-01T17:11:28.347Z,50.21
2022-12-01T17:14:23.761Z,50.17
2022-12-01T17:17:18.572Z,50.09
2022-12-01T17:20:15.525Z,50.06
2022-12-01T17:23:10.398Z,50.06
2022-12-01T17:26:07.448Z,50.11
2022-12-01T17:29:02.120Z,50.14
2022-12-01T17:31:56.884Z,50.16
2022-12-01T17:34:52.083Z,50.17
2022-12-01T17:37:46.952Z,50.23
2022-12-01T17:40:42.255Z,50.28
2022-12-01T17:43:37.843Z,50.33
2022-12-01T17:46:32.551Z,50.38
2022-12-01T17:49:26.837Z,50.65
2022-12-01T17:52:28.010Z,50.56
2022-12-01T17:55:23.382Z,50.71
2022-12-01T17:58:21.805Z,50.86
2022-12-01T18:01:19.622Z,50.90
2022-12-01T18:04:14.389Z,50.96
2022-12-01T18:07:09.293Z,50.99
2022-12-01T18:10:04.065Z,51.12
2022-12-01T18:12:59.387Z,51.29
2022-12-01T18:15:54.223Z,51.37
2022-12-01T18:18:49.189Z,51.46
2022-12-01T18:21:43.936Z,51.46
2022-12-01T18:24:39.293Z,51.53
2022-12-01T18:27:34.196Z,51.53
2022-12-01T18:30:29.705Z,51.55
2022-12-01T18:33:24.742Z,51.52
2022-12-01T18:36:21.207Z,51.51
2022-12-01T18:39:15.934Z,51.48
2022-12-01T18:42:10.805Z,51.46
2022-12-01T18:45:05.716Z,51.42
2022-12-01T18:48:00.571Z,51.38
2022-12-01T18:50:59.387Z,51.35
2022-12-01T18:53:57.985Z,51.33
2022-12-01T18:56:58.902Z,51.30
2022-12-01T18:59:54.028Z,51.27
2022-12-01T19:02:48.789Z,51.23
2022-12-01T19:05:43.960Z,51.22
2022-12-01T19:08:38.654Z,51.20
2022-12-01T19:11:34.877Z,51.18
2022-12-01T19:14:30.768Z,51.15
2022-12-01T19:17:25.512Z,51.11
2022-12-01T19:20:20.771Z,51.11
2022-12-01T19:23:15.461Z,51.11
2022-12-01T19:26:12.371Z,51.07
2022-12-01T19:29:07.594Z,51.05
2022-12-01T19:32:02.347Z,51.06
2022-12-01T19:34:57.095Z,51.01
2022-12-01T19:37:52.438Z,50.98
2022-12-01T19:40:48.047Z,50.90
2022-12-01T19:43:43.527Z,50.89
2022-12-01T19:46:40.574Z,50.88
2022-12-01T19:49:35.656Z,50.83
2022-12-01T19:52:30.720Z,50.81
2022-12-01T19:55:26.848Z,50.79
2022-12-01T19:58:21.851Z,50.75
2022-12-01T20:01:18.056Z,50.66
2022-12-01T20:04:13.249Z,50.66
2022-12-01T20:07:08.439Z,50.62
2022-12-01T20:10:05.893Z,50.63
2022-12-01T20:13:00.734Z,50.61
2022-12-01T20:15:55.418Z,50.64
2022-12-01T20:18:50.242Z,50.60
2022-12-01T20:21:45.063Z,50.60
2022-12-01T20:24:42.194Z,50.53
2022-12-01T20:27:37.043Z,50.48
2022-12-01T20:30:31.994Z,50.45
2022-12-01T20:36:30.051Z,50.42
2022-12-01T20:39:20.796Z,50.40
2022-12-01T20:42:11.681Z,50.32
2022-12-01T20:45:02.725Z,50.29
2022-12-01T20:47:53.866Z,50.19
2022-12-01T20:50:44.422Z,50.22
2022-12-01T20:53:35.293Z,50.23
2022-12-01T20:56:25.932Z,50.10
2022-12-01T20:59:16.811Z,50.16
2022-12-01T21:02:07.404Z,50.04
2022-12-01T21:04:59.327Z,50.00
2022-12-01T21:07:50.690Z,49.88
2022-12-01T21:10:44.261Z,49.95
2022-12-01T21:13:44.414Z,49.98
2022-12-01T21:16:35.195Z,49.94
2022-12-01T21:19:30.860Z,49.95
2022-12-01T21:22:21.890Z,49.84
2022-12-01T21:25:18.089Z,49.87
2022-12-01T21:28:15.831Z,49.72
2022-12-01T21:31:13.785Z,49.32
2022-12-01T21:34:09.118Z,49.00
2022-12-01T21:37:01.845Z,49.43
2022-12-01T21:39:53.329Z,49.41
2022-12-01T21:42:43.920Z,49.36
2022-12-01T21:45:34.458Z,49.32
2022-12-01T21:48:25.000Z,49.20
2022-12-01T21:51:20.364Z,49.26
2022-12-01T21:54:15.490Z,49.20
2022-12-01T21:57:49.808Z,49.26
2022-12-01T22:00:44.800Z,49.36
2022-12-01T22:03:44.853Z,49.44
2022-12-01T22:06:41.760Z,49.43
2022-12-01T22:09:38.119Z,49.43
2022-12-01T22:12:33.468Z,49.47
2022-12-01T22:15:37.646Z,49.49
2022-12-01T22:18:37.094Z,49.49
2022-12-01T22:21:41.025Z,49.48
2022-12-01T22:24:41.753Z,49.47
2022-12-01T22:27:38.291Z,49.55
2022-12-01T22:30:32.883Z,49.54
2022-12-01T22:33:27.995Z,49.53
2022-12-01T22:36:25.810Z,49.52
2022-12-01T22:39:31.605Z,49.47
2022-12-01T22:42:31.392Z,49.50
2022-12-01T22:45:27.821Z,49.48
2022-12-01T22:48:31.034Z,49.52
2022-12-01T22:51:39.144Z,49.55
2022-12-01T22:54:40.632Z,49.49
2022-12-01T22:57:37.333Z,49.46
2022-12-01T23:00:32.230Z,49.43
2022-12-01T23:03:27.062Z,49.43
2022-12-01T23:07:08.609Z,49.37
2022-12-01T23:10:16.116Z,49.41
2022-12-01T23:13:20.146Z,49.37
2022-12-01T23:16:15.498Z,49.33
2022-12-01T23:19:10.689Z,49.33
2022-12-01T23:22:05.311Z,49.28
2022-12-01T23:25:00.008Z,49.28
2022-12-01T23:28:03.558Z,49.32
2022-12-01T23:31:00.557Z,49.30
2022-12-01T23:33:55.051Z,49.28
2022-12-01T23:36:49.516Z,49.21
2022-12-01T23:39:44.046Z,49.26
2022-12-01T23:42:38.360Z,49.24
2022-12-01T23:45:33.100Z,49.26
2022-12-01T23:48:29.438Z,49.26
2022-12-01T23:51:26.766Z,49.18
2022-12-01T23:54:25.459Z,49.20
2022-12-01T23:57:25.255Z,49.17
